Aviation Digital Data Service (ADDS)

Output produced by METARs form (0135 UTC 29 September 2016)
found at http://aviationweather.gov/adds/metars/
 
KRDU 290035Z 2901/2924 16006KT P6SM VCSH FEW030 SCT070 BKN250 
     TEMPO 2901/2903 5SM -TSRA BKN020CB 
     FM290400 13005KT 5SM -SHRA SCT020 BKN040 
     TEMPO 2904/2908 5SM -TSRA BKN020CB 
     FM291000 15004KT 4SM -SHRA BR BKN007 
     FM291500 15007KT P6SM SCT035 BKN050 
     TEMPO 2916/2920 VRB15G30KT 2SM -TSRA SCT020 BKN040CB